sensor_id;sensor_type;location;lat;lon;timestamp;temperature;humidity
18103;DHT22;9178;51.120;6.192;2023-07-29T00:01:32;17.80;99.90
18103;DHT22;9178;51.120;6.192;2023-07-29T00:03:59;17.80;99.90
18103;DHT22;9178;51.120;6.192;2023-07-29T00:06:26;17.80;99.90
18103;DHT22;9178;51.120;6.192;2023-07-29T00:08:53;17.80;99.90
18103;DHT22;9178;51.120;6.192;2023-07-29T00:11:20;17.80;99.90
18103;DHT22;9178;51.120;6.192;2023-07-29T00:13:47;17.80;99.90
18103;DHT22;9178;51.120;6.192;2023-07-29T00:16:15;17.80;99.90
18103;DHT22;9178;51.120;6.192;2023-07-29T00:18:44;17.80;99.90
18103;DHT22;9178;51.120;6.192;2023-07-29T00:21:11;17.80;99.90
18103;DHT22;9178;51.120;6.192;2023-07-29T00:23:38;17.80;99.90
18103;DHT22;9178;51.120;6.192;2023-07-29T00:26:05;17.80;99.90
18103;DHT22;9178;51.120;6.192;2023-07-29T00:28:32;17.80;99.90
18103;DHT22;9178;51.120;6.192;2023-07-29T00:31:01;17.80;99.90
18103;DHT22;9178;51.120;6.192;2023-07-29T00:33:28;17.80;99.90
18103;DHT22;9178;51.120;6.192;2023-07-29T00:35:56;17.80;99.90
18103;DHT22;9178;51.120;6.192;2023-07-29T00:38:27;17.80;99.90
18103;DHT22;9178;51.120;6.192;2023-07-29T00:40:54;17.80;99.90
18103;DHT22;9178;51.120;6.192;2023-07-29T00:43:20;17.70;99.90
18103;DHT22;9178;51.120;6.192;2023-07-29T00:45:47;17.70;99.90
18103;DHT22;9178;51.120;6.192;2023-07-29T00:48:14;17.80;99.90
18103;DHT22;9178;51.120;6.192;2023-07-29T00:50:42;17.80;99.90
18103;DHT22;9178;51.120;6.192;2023-07-29T00:53:10;17.80;99.90
18103;DHT22;9178;51.120;6.192;2023-07-29T00:55:36;17.80;99.90
18103;DHT22;9178;51.120;6.192;2023-07-29T00:58:04;17.80;99.90
18103;DHT22;9178;51.120;6.192;2023-07-29T01:00:31;17.90;99.90
18103;DHT22;9178;51.120;6.192;2023-07-29T01:02:58;17.90;99.90
18103;DHT22;9178;51.120;6.192;2023-07-29T01:05:29;17.90;99.90
18103;DHT22;9178;51.120;6.192;2023-07-29T01:08:03;17.90;99.90
18103;DHT22;9178;51.120;6.192;2023-07-29T01:10:41;17.90;99.90
18103;DHT22;9178;51.120;6.192;2023-07-29T01:13:17;17.90;99.90
18103;DHT22;9178;51.120;6.192;2023-07-29T01:15:48;17.90;99.90
18103;DHT22;9178;51.120;6.192;2023-07-29T01:18:23;18.00;99.90
18103;DHT22;9178;51.120;6.192;2023-07-29T01:20:54;18.00;99.90
18103;DHT22;9178;51.120;6.192;2023-07-29T01:23:25;18.00;99.90
18103;DHT22;9178;51.120;6.192;2023-07-29T01:25:52;18.00;99.90
18103;DHT22;9178;51.120;6.192;2023-07-29T01:28:20;18.00;99.90
18103;DHT22;9178;51.120;6.192;2023-07-29T01:30:49;18.00;99.90
18103;DHT22;9178;51.120;6.192;2023-07-29T01:33:24;18.00;99.90
18103;DHT22;9178;51.120;6.192;2023-07-29T01:35:57;18.10;99.90
18103;DHT22;9178;51.120;6.192;2023-07-29T01:38:29;18.10;99.90
18103;DHT22;9178;51.120;6.192;2023-07-29T01:41:01;18.10;99.90
18103;DHT22;9178;51.120;6.192;2023-07-29T01:43:28;18.10;99.90
18103;DHT22;9178;51.120;6.192;2023-07-29T01:45:58;18.10;99.90
18103;DHT22;9178;51.120;6.192;2023-07-29T01:48:25;18.00;99.90
18103;DHT22;9178;51.120;6.192;2023-07-29T01:50:53;18.00;99.90
18103;DHT22;9178;51.120;6.192;2023-07-29T01:53:20;18.00;99.90
18103;DHT22;9178;51.120;6.192;2023-07-29T01:55:48;18.00;99.90
18103;DHT22;9178;51.120;6.192;2023-07-29T01:58:15;18.00;99.90
18103;DHT22;9178;51.120;6.192;2023-07-29T02:00:42;18.00;99.90
18103;DHT22;9178;51.120;6.192;2023-07-29T02:03:10;18.10;99.90
18103;DHT22;9178;51.120;6.192;2023-07-29T02:05:37;18.10;99.90
18103;DHT22;9178;51.120;6.192;2023-07-29T02:08:07;18.10;99.90
18103;DHT22;9178;51.120;6.192;2023-07-29T02:10:34;18.10;99.90
18103;DHT22;9178;51.120;6.192;2023-07-29T02:13:03;18.10;99.90
18103;DHT22;9178;51.120;6.192;2023-07-29T02:15:30;18.10;99.90
18103;DHT22;9178;51.120;6.192;2023-07-29T02:17:59;18.10;99.90
18103;DHT22;9178;51.120;6.192;2023-07-29T02:20:27;18.20;99.90
18103;DHT22;9178;51.120;6.192;2023-07-29T02:22:54;18.10;99.90
18103;DHT22;9178;51.120;6.192;2023-07-29T02:25:21;18.10;99.90
18103;DHT22;9178;51.120;6.192;2023-07-29T02:27:48;18.20;99.90
18103;DHT22;9178;51.120;6.192;2023-07-29T02:30:17;18.20;99.90
18103;DHT22;9178;51.120;6.192;2023-07-29T02:32:44;18.20;99.90
18103;DHT22;9178;51.120;6.192;2023-07-29T02:35:11;18.20;99.90
18103;DHT22;9178;51.120;6.192;2023-07-29T02:37:38;18.20;99.90
18103;DHT22;9178;51.120;6.192;2023-07-29T02:40:06;18.20;99.90
18103;DHT22;9178;51.120;6.192;2023-07-29T02:42:34;18.20;99.90
18103;DHT22;9178;51.120;6.192;2023-07-29T02:45:10;18.20;99.90
18103;DHT22;9178;51.120;6.192;2023-07-29T02:47:39;18.20;99.90
18103;DHT22;9178;51.120;6.192;2023-07-29T02:50:09;18.20;99.90
18103;DHT22;9178;51.120;6.192;2023-07-29T02:52:39;18.30;99.90
18103;DHT22;9178;51.120;6.192;2023-07-29T02:55:06;18.30;99.90
18103;DHT22;9178;51.120;6.192;2023-07-29T02:57:39;18.30;99.90
18103;DHT22;9178;51.120;6.192;2023-07-29T03:00:10;18.30;99.90
18103;DHT22;9178;51.120;6.192;2023-07-29T03:02:38;18.20;99.90
18103;DHT22;9178;51.120;6.192;2023-07-29T03:05:06;18.20;99.90
18103;DHT22;9178;51.120;6.192;2023-07-29T03:07:36;18.30;99.90
18103;DHT22;9178;51.120;6.192;2023-07-29T03:10:04;18.20;99.90
18103;DHT22;9178;51.120;6.192;2023-07-29T03:12:31;18.20;99.90
18103;DHT22;9178;51.120;6.192;2023-07-29T03:14:59;18.20;99.90
18103;DHT22;9178;51.120;6.192;2023-07-29T03:17:27;18.10;99.90
18103;DHT22;9178;51.120;6.192;2023-07-29T03:19:55;18.20;99.90
18103;DHT22;9178;51.120;6.192;2023-07-29T03:22:22;18.10;99.90
18103;DHT22;9178;51.120;6.192;2023-07-29T03:24:49;18.20;99.90
18103;DHT22;9178;51.120;6.192;2023-07-29T03:27:18;18.10;99.90
18103;DHT22;9178;51.120;6.192;2023-07-29T03:29:45;18.20;99.90
18103;DHT22;9178;51.120;6.192;2023-07-29T03:32:13;18.10;99.90
18103;DHT22;9178;51.120;6.192;2023-07-29T03:34:41;18.10;99.90
18103;DHT22;9178;51.120;6.192;2023-07-29T03:37:10;18.10;99.90
18103;DHT22;9178;51.120;6.192;2023-07-29T03:39:37;18.10;99.90
18103;DHT22;9178;51.120;6.192;2023-07-29T03:42:04;18.10;99.90
18103;DHT22;9178;51.120;6.192;2023-07-29T03:44:34;18.00;99.90
18103;DHT22;9178;51.120;6.192;2023-07-29T03:47:01;18.00;99.90
18103;DHT22;9178;51.120;6.192;2023-07-29T03:49:28;18.00;99.90
18103;DHT22;9178;51.120;6.192;2023-07-29T03:51:55;18.00;99.90
18103;DHT22;9178;51.120;6.192;2023-07-29T03:54:25;18.00;99.90
18103;DHT22;9178;51.120;6.192;2023-07-29T03:56:52;17.90;99.90
18103;DHT22;9178;51.120;6.192;2023-07-29T03:59:21;17.90;99.90
18103;DHT22;9178;51.120;6.192;2023-07-29T04:01:48;17.90;99.90
18103;DHT22;9178;51.120;6.192;2023-07-29T04:04:15;17.90;99.90
18103;DHT22;9178;51.120;6.192;2023-07-29T04:06:44;17.80;99.90
18103;DHT22;9178;51.120;6.192;2023-07-29T04:09:11;17.80;99.90
18103;DHT22;9178;51.120;6.192;2023-07-29T04:11:39;17.80;99.90
18103;DHT22;9178;51.120;6.192;2023-07-29T04:14:06;17.80;99.90
18103;DHT22;9178;51.120;6.192;2023-07-29T04:16:33;17.80;99.90
18103;DHT22;9178;51.120;6.192;2023-07-29T04:18:59;17.80;99.90
18103;DHT22;9178;51.120;6.192;2023-07-29T04:21:26;17.80;99.90
18103;DHT22;9178;51.120;6.192;2023-07-29T04:23:53;17.70;99.90
18103;DHT22;9178;51.120;6.192;2023-07-29T04:26:20;17.70;99.90
18103;DHT22;9178;51.120;6.192;2023-07-29T04:28:51;17.60;99.90
18103;DHT22;9178;51.120;6.192;2023-07-29T04:31:18;17.60;99.90
18103;DHT22;9178;51.120;6.192;2023-07-29T04:33:45;17.60;99.90
18103;DHT22;9178;51.120;6.192;2023-07-29T04:36:12;17.60;99.90
18103;DHT22;9178;51.120;6.192;2023-07-29T04:38:41;17.50;99.90
18103;DHT22;9178;51.120;6.192;2023-07-29T04:41:08;17.50;99.90
18103;DHT22;9178;51.120;6.192;2023-07-29T04:43:37;17.40;99.90
18103;DHT22;9178;51.120;6.192;2023-07-29T04:46:07;17.40;99.90
18103;DHT22;9178;51.120;6.192;2023-07-29T04:48:35;17.40;99.90
18103;DHT22;9178;51.120;6.192;2023-07-29T04:51:02;17.40;99.90
18103;DHT22;9178;51.120;6.192;2023-07-29T04:53:29;17.40;99.90
18103;DHT22;9178;51.120;6.192;2023-07-29T04:55:56;17.40;99.90
18103;DHT22;9178;51.120;6.192;2023-07-29T04:58:29;17.40;99.90
18103;DHT22;9178;51.120;6.192;2023-07-29T05:01:00;17.40;99.90
18103;DHT22;9178;51.120;6.192;2023-07-29T05:03:28;17.40;99.90
18103;DHT22;9178;51.120;6.192;2023-07-29T05:05:55;17.40;99.90
18103;DHT22;9178;51.120;6.192;2023-07-29T05:08:22;17.30;99.90
18103;DHT22;9178;51.120;6.192;2023-07-29T05:10:49;17.30;99.90
18103;DHT22;9178;51.120;6.192;2023-07-29T05:13:17;17.30;99.90
18103;DHT22;9178;51.120;6.192;2023-07-29T05:15:44;17.30;99.90
18103;DHT22;9178;51.120;6.192;2023-07-29T05:18:11;17.30;99.90
18103;DHT22;9178;51.120;6.192;2023-07-29T05:20:41;17.20;99.90
18103;DHT22;9178;51.120;6.192;2023-07-29T05:23:08;17.20;99.90
18103;DHT22;9178;51.120;6.192;2023-07-29T05:25:35;17.30;99.90
18103;DHT22;9178;51.120;6.192;2023-07-29T05:28:02;17.30;99.90
18103;DHT22;9178;51.120;6.192;2023-07-29T05:30:29;17.30;99.90
18103;DHT22;9178;51.120;6.192;2023-07-29T05:32:57;17.20;99.90
18103;DHT22;9178;51.120;6.192;2023-07-29T05:35:24;17.20;99.90
18103;DHT22;9178;51.120;6.192;2023-07-29T05:37:52;17.30;99.90
18103;DHT22;9178;51.120;6.192;2023-07-29T05:40:19;17.30;99.90
18103;DHT22;9178;51.120;6.192;2023-07-29T05:42:46;17.40;99.90
18103;DHT22;9178;51.120;6.192;2023-07-29T05:45:13;17.40;99.90
18103;DHT22;9178;51.120;6.192;2023-07-29T05:47:40;17.40;99.90
18103;DHT22;9178;51.120;6.192;2023-07-29T05:50:08;17.40;99.90
18103;DHT22;9178;51.120;6.192;2023-07-29T05:52:36;17.40;99.90
18103;DHT22;9178;51.120;6.192;2023-07-29T05:55:05;17.50;99.90
18103;DHT22;9178;51.120;6.192;2023-07-29T05:57:32;17.50;99.90
18103;DHT22;9178;51.120;6.192;2023-07-29T05:59:59;17.50;99.90
18103;DHT22;9178;51.120;6.192;2023-07-29T06:02:26;17.50;99.90
18103;DHT22;9178;51.120;6.192;2023-07-29T06:04:53;17.50;99.90
18103;DHT22;9178;51.120;6.192;2023-07-29T06:07:20;17.50;99.90
18103;DHT22;9178;51.120;6.192;2023-07-29T06:09:47;17.60;99.90
18103;DHT22;9178;51.120;6.192;2023-07-29T06:12:16;17.60;99.90
18103;DHT22;9178;51.120;6.192;2023-07-29T06:14:43;17.70;99.90
18103;DHT22;9178;51.120;6.192;2023-07-29T06:17:09;17.80;99.90
18103;DHT22;9178;51.120;6.192;2023-07-29T06:19:37;17.80;99.90
18103;DHT22;9178;51.120;6.192;2023-07-29T06:22:05;17.90;99.90
18103;DHT22;9178;51.120;6.192;2023-07-29T06:24:32;18.00;99.90
18103;DHT22;9178;51.120;6.192;2023-07-29T06:26:59;18.00;99.90
18103;DHT22;9178;51.120;6.192;2023-07-29T06:29:27;18.00;99.90
18103;DHT22;9178;51.120;6.192;2023-07-29T06:31:54;18.10;99.90
18103;DHT22;9178;51.120;6.192;2023-07-29T06:34:21;18.10;99.90
18103;DHT22;9178;51.120;6.192;2023-07-29T06:36:48;18.00;99.90
18103;DHT22;9178;51.120;6.192;2023-07-29T06:39:15;18.00;99.90
18103;DHT22;9178;51.120;6.192;2023-07-29T06:41:41;18.00;99.90
18103;DHT22;9178;51.120;6.192;2023-07-29T06:44:08;18.00;99.90
18103;DHT22;9178;51.120;6.192;2023-07-29T06:46:37;18.10;99.90
18103;DHT22;9178;51.120;6.192;2023-07-29T06:49:04;18.10;99.90
18103;DHT22;9178;51.120;6.192;2023-07-29T06:51:31;18.10;99.90
18103;DHT22;9178;51.120;6.192;2023-07-29T06:54:01;18.20;99.90
18103;DHT22;9178;51.120;6.192;2023-07-29T06:56:27;18.30;99.90
18103;DHT22;9178;51.120;6.192;2023-07-29T06:58:54;18.30;99.90
18103;DHT22;9178;51.120;6.192;2023-07-29T07:01:21;18.40;99.90
18103;DHT22;9178;51.120;6.192;2023-07-29T07:03:49;18.40;99.90
18103;DHT22;9178;51.120;6.192;2023-07-29T07:06:20;18.40;99.90
18103;DHT22;9178;51.120;6.192;2023-07-29T07:08:47;18.50;99.90
18103;DHT22;9178;51.120;6.192;2023-07-29T07:11:13;18.50;99.90
18103;DHT22;9178;51.120;6.192;2023-07-29T07:13:40;18.50;99.90
18103;DHT22;9178;51.120;6.192;2023-07-29T07:16:09;18.50;99.90
18103;DHT22;9178;51.120;6.192;2023-07-29T07:18:36;18.40;99.90
18103;DHT22;9178;51.120;6.192;2023-07-29T07:21:05;18.40;99.90
18103;DHT22;9178;51.120;6.192;2023-07-29T07:23:31;18.40;99.90
18103;DHT22;9178;51.120;6.192;2023-07-29T07:25:58;18.50;99.90
18103;DHT22;9178;51.120;6.192;2023-07-29T07:28:25;18.70;99.90
18103;DHT22;9178;51.120;6.192;2023-07-29T07:30:52;19.00;99.90
18103;DHT22;9178;51.120;6.192;2023-07-29T07:33:21;19.20;99.90
18103;DHT22;9178;51.120;6.192;2023-07-29T07:35:48;19.50;99.90
18103;DHT22;9178;51.120;6.192;2023-07-29T07:38:16;19.60;99.90
18103;DHT22;9178;51.120;6.192;2023-07-29T07:40:51;19.80;99.90
18103;DHT22;9178;51.120;6.192;2023-07-29T07:43:18;20.10;99.90
18103;DHT22;9178;51.120;6.192;2023-07-29T07:45:45;20.30;99.90
18103;DHT22;9178;51.120;6.192;2023-07-29T07:48:12;20.60;99.90
18103;DHT22;9178;51.120;6.192;2023-07-29T07:50:39;20.80;99.90
18103;DHT22;9178;51.120;6.192;2023-07-29T07:53:06;21.10;99.90
18103;DHT22;9178;51.120;6.192;2023-07-29T07:55:34;21.30;99.90
18103;DHT22;9178;51.120;6.192;2023-07-29T07:58:01;21.50;99.90
18103;DHT22;9178;51.120;6.192;2023-07-29T08:00:28;21.60;99.90
18103;DHT22;9178;51.120;6.192;2023-07-29T08:02:55;21.70;99.90
18103;DHT22;9178;51.120;6.192;2023-07-29T08:05:22;21.80;99.90
18103;DHT22;9178;51.120;6.192;2023-07-29T08:07:48;21.90;99.90
18103;DHT22;9178;51.120;6.192;2023-07-29T08:10:15;22.10;99.90
18103;DHT22;9178;51.120;6.192;2023-07-29T08:12:44;22.00;99.90
18103;DHT22;9178;51.120;6.192;2023-07-29T08:15:11;21.90;99.90
18103;DHT22;9178;51.120;6.192;2023-07-29T08:17:40;21.80;99.90
18103;DHT22;9178;51.120;6.192;2023-07-29T08:20:07;21.80;99.90
18103;DHT22;9178;51.120;6.192;2023-07-29T08:22:36;21.90;99.90
18103;DHT22;9178;51.120;6.192;2023-07-29T08:25:04;22.10;99.90
18103;DHT22;9178;51.120;6.192;2023-07-29T08:27:33;22.50;99.90
18103;DHT22;9178;51.120;6.192;2023-07-29T08:30:02;22.50;99.90
18103;DHT22;9178;51.120;6.192;2023-07-29T08:32:30;22.50;99.90
18103;DHT22;9178;51.120;6.192;2023-07-29T08:34:57;22.50;99.90
18103;DHT22;9178;51.120;6.192;2023-07-29T08:37:26;22.50;99.90
18103;DHT22;9178;51.120;6.192;2023-07-29T08:39:55;22.40;99.90
18103;DHT22;9178;51.120;6.192;2023-07-29T08:42:23;22.30;99.90
18103;DHT22;9178;51.120;6.192;2023-07-29T08:44:55;22.10;99.90
18103;DHT22;9178;51.120;6.192;2023-07-29T08:47:24;22.00;99.90
18103;DHT22;9178;51.120;6.192;2023-07-29T08:49:51;21.80;99.90
18103;DHT22;9178;51.120;6.192;2023-07-29T08:52:19;21.70;99.90
18103;DHT22;9178;51.120;6.192;2023-07-29T08:54:46;21.60;99.90
18103;DHT22;9178;51.120;6.192;2023-07-29T08:57:14;21.50;99.90
18103;DHT22;9178;51.120;6.192;2023-07-29T08:59:41;21.60;99.90
18103;DHT22;9178;51.120;6.192;2023-07-29T09:02:08;21.60;99.90
18103;DHT22;9178;51.120;6.192;2023-07-29T09:04:36;21.60;99.90
18103;DHT22;9178;51.120;6.192;2023-07-29T09:07:05;21.60;99.90
18103;DHT22;9178;51.120;6.192;2023-07-29T09:09:32;21.50;99.90
18103;DHT22;9178;51.120;6.192;2023-07-29T09:11:59;21.50;99.90
18103;DHT22;9178;51.120;6.192;2023-07-29T09:14:26;21.50;99.90
18103;DHT22;9178;51.120;6.192;2023-07-29T09:16:54;21.60;99.90
18103;DHT22;9178;51.120;6.192;2023-07-29T09:19:25;21.70;99.90
18103;DHT22;9178;51.120;6.192;2023-07-29T09:21:54;21.90;99.90
18103;DHT22;9178;51.120;6.192;2023-07-29T09:24:22;22.10;99.90
18103;DHT22;9178;51.120;6.192;2023-07-29T09:26:50;22.30;99.90
18103;DHT22;9178;51.120;6.192;2023-07-29T09:29:22;22.50;99.90
18103;DHT22;9178;51.120;6.192;2023-07-29T09:31:50;22.70;99.90
18103;DHT22;9178;51.120;6.192;2023-07-29T09:34:17;22.80;99.90
18103;DHT22;9178;51.120;6.192;2023-07-29T09:36:46;23.00;99.90
18103;DHT22;9178;51.120;6.192;2023-07-29T09:39:18;23.10;99.90
18103;DHT22;9178;51.120;6.192;2023-07-29T09:41:48;23.30;99.90
18103;DHT22;9178;51.120;6.192;2023-07-29T09:44:15;23.50;99.90
18103;DHT22;9178;51.120;6.192;2023-07-29T09:46:46;23.60;99.90
18103;DHT22;9178;51.120;6.192;2023-07-29T09:49:14;23.50;99.90
18103;DHT22;9178;51.120;6.192;2023-07-29T09:51:41;23.80;99.90
18103;DHT22;9178;51.120;6.192;2023-07-29T09:54:09;24.10;99.90
18103;DHT22;9178;51.120;6.192;2023-07-29T09:56:41;24.30;99.90
18103;DHT22;9178;51.120;6.192;2023-07-29T09:59:10;24.20;99.90
18103;DHT22;9178;51.120;6.192;2023-07-29T10:01:37;24.10;99.90
18103;DHT22;9178;51.120;6.192;2023-07-29T10:04:05;24.00;99.90
18103;DHT22;9178;51.120;6.192;2023-07-29T10:06:34;24.00;99.90
18103;DHT22;9178;51.120;6.192;2023-07-29T10:09:01;24.00;99.90
18103;DHT22;9178;51.120;6.192;2023-07-29T10:11:29;24.20;99.90
18103;DHT22;9178;51.120;6.192;2023-07-29T10:14:00;24.60;99.90
18103;DHT22;9178;51.120;6.192;2023-07-29T10:16:29;25.00;99.90
18103;DHT22;9178;51.120;6.192;2023-07-29T10:18:56;25.40;99.90
18103;DHT22;9178;51.120;6.192;2023-07-29T10:21:23;25.80;99.90
18103;DHT22;9178;51.120;6.192;2023-07-29T10:24:11;26.00;99.90
18103;DHT22;9178;51.120;6.192;2023-07-29T10:26:44;26.10;99.90
18103;DHT22;9178;51.120;6.192;2023-07-29T10:29:18;26.00;99.90
18103;DHT22;9178;51.120;6.192;2023-07-29T10:31:46;25.90;99.90
18103;DHT22;9178;51.120;6.192;2023-07-29T10:34:13;25.80;99.90
18103;DHT22;9178;51.120;6.192;2023-07-29T10:36:41;25.40;99.90
18103;DHT22;9178;51.120;6.192;2023-07-29T10:39:09;25.10;99.90
18103;DHT22;9178;51.120;6.192;2023-07-29T10:41:55;24.90;99.90
18103;DHT22;9178;51.120;6.192;2023-07-29T10:44:48;24.60;99.90
18103;DHT22;9178;51.120;6.192;2023-07-29T10:47:20;24.50;99.90
18103;DHT22;9178;51.120;6.192;2023-07-29T10:49:54;24.40;99.90
18103;DHT22;9178;51.120;6.192;2023-07-29T10:52:30;24.50;99.90
18103;DHT22;9178;51.120;6.192;2023-07-29T10:54:57;24.50;99.90
18103;DHT22;9178;51.120;6.192;2023-07-29T10:57:35;24.60;99.90
18103;DHT22;9178;51.120;6.192;2023-07-29T11:00:07;25.10;99.90
18103;DHT22;9178;51.120;6.192;2023-07-29T11:02:36;25.60;99.90
18103;DHT22;9178;51.120;6.192;2023-07-29T11:05:05;25.60;99.90
18103;DHT22;9178;51.120;6.192;2023-07-29T11:07:43;25.60;99.90
18103;DHT22;9178;51.120;6.192;2023-07-29T11:10:12;25.50;99.90
18103;DHT22;9178;51.120;6.192;2023-07-29T11:12:40;25.30;99.90
18103;DHT22;9178;51.120;6.192;2023-07-29T11:15:16;25.10;99.90
18103;DHT22;9178;51.120;6.192;2023-07-29T11:17:45;25.30;99.90
18103;DHT22;9178;51.120;6.192;2023-07-29T11:20:13;26.00;99.90
18103;DHT22;9178;51.120;6.192;2023-07-29T11:22:40;26.60;99.90
18103;DHT22;9178;51.120;6.192;2023-07-29T11:25:09;26.90;99.90
18103;DHT22;9178;51.120;6.192;2023-07-29T11:27:36;27.00;99.90
18103;DHT22;9178;51.120;6.192;2023-07-29T11:30:05;27.50;99.90
18103;DHT22;9178;51.120;6.192;2023-07-29T11:32:35;28.00;99.90
18103;DHT22;9178;51.120;6.192;2023-07-29T11:35:03;28.40;99.90
18103;DHT22;9178;51.120;6.192;2023-07-29T11:37:32;28.80;99.90
18103;DHT22;9178;51.120;6.192;2023-07-29T11:39:59;29.40;99.90
18103;DHT22;9178;51.120;6.192;2023-07-29T11:42:27;29.80;99.90
18103;DHT22;9178;51.120;6.192;2023-07-29T11:44:56;29.90;99.90
18103;DHT22;9178;51.120;6.192;2023-07-29T11:47:23;29.40;99.90
18103;DHT22;9178;51.120;6.192;2023-07-29T11:49:52;28.90;99.90
18103;DHT22;9178;51.120;6.192;2023-07-29T11:52:19;28.70;99.90
18103;DHT22;9178;51.120;6.192;2023-07-29T11:54:48;28.40;99.90
18103;DHT22;9178;51.120;6.192;2023-07-29T11:57:15;28.10;99.90
18103;DHT22;9178;51.120;6.192;2023-07-29T11:59:44;28.10;99.90
18103;DHT22;9178;51.120;6.192;2023-07-29T12:02:15;28.00;99.90
18103;DHT22;9178;51.120;6.192;2023-07-29T12:04:44;28.20;99.90
18103;DHT22;9178;51.120;6.192;2023-07-29T12:07:16;28.10;99.90
18103;DHT22;9178;51.120;6.192;2023-07-29T12:09:44;27.80;99.90
18103;DHT22;9178;51.120;6.192;2023-07-29T12:12:12;27.50;99.90
18103;DHT22;9178;51.120;6.192;2023-07-29T12:14:39;27.40;99.90
18103;DHT22;9178;51.120;6.192;2023-07-29T12:17:12;27.30;99.90
18103;DHT22;9178;51.120;6.192;2023-07-29T12:19:40;27.20;99.90
18103;DHT22;9178;51.120;6.192;2023-07-29T12:22:08;27.10;99.90
18103;DHT22;9178;51.120;6.192;2023-07-29T12:24:38;27.00;99.90
18103;DHT22;9178;51.120;6.192;2023-07-29T12:27:09;26.80;99.90
18103;DHT22;9178;51.120;6.192;2023-07-29T12:29:40;26.60;99.90
18103;DHT22;9178;51.120;6.192;2023-07-29T12:32:08;26.50;99.90
18103;DHT22;9178;51.120;6.192;2023-07-29T12:34:36;26.40;99.90
18103;DHT22;9178;51.120;6.192;2023-07-29T12:37:05;26.20;99.90
18103;DHT22;9178;51.120;6.192;2023-07-29T12:39:34;26.10;99.90
18103;DHT22;9178;51.120;6.192;2023-07-29T12:42:03;26.00;99.90
18103;DHT22;9178;51.120;6.192;2023-07-29T12:44:32;25.90;99.90
18103;DHT22;9178;51.120;6.192;2023-07-29T12:47:00;25.70;99.90
18103;DHT22;9178;51.120;6.192;2023-07-29T12:49:28;25.70;99.90
18103;DHT22;9178;51.120;6.192;2023-07-29T12:51:55;25.70;99.90
18103;DHT22;9178;51.120;6.192;2023-07-29T12:54:22;25.70;99.90
18103;DHT22;9178;51.120;6.192;2023-07-29T12:56:49;25.50;99.90
18103;DHT22;9178;51.120;6.192;2023-07-29T12:59:17;25.30;99.90
18103;DHT22;9178;51.120;6.192;2023-07-29T13:01:44;25.20;99.90
18103;DHT22;9178;51.120;6.192;2023-07-29T13:04:11;25.00;99.90
18103;DHT22;9178;51.120;6.192;2023-07-29T13:06:38;24.70;99.90
18103;DHT22;9178;51.120;6.192;2023-07-29T13:09:05;24.50;99.90
18103;DHT22;9178;51.120;6.192;2023-07-29T13:11:32;24.40;99.90
18103;DHT22;9178;51.120;6.192;2023-07-29T13:13:59;24.40;99.90
18103;DHT22;9178;51.120;6.192;2023-07-29T13:16:27;24.30;99.90
18103;DHT22;9178;51.120;6.192;2023-07-29T13:18:54;24.30;99.90
18103;DHT22;9178;51.120;6.192;2023-07-29T13:21:22;24.10;99.90
18103;DHT22;9178;51.120;6.192;2023-07-29T13:23:49;24.00;99.90
18103;DHT22;9178;51.120;6.192;2023-07-29T13:26:16;23.90;99.90
18103;DHT22;9178;51.120;6.192;2023-07-29T13:28:43;23.90;99.90
18103;DHT22;9178;51.120;6.192;2023-07-29T13:31:10;23.90;99.90
18103;DHT22;9178;51.120;6.192;2023-07-29T13:33:38;23.80;99.90
18103;DHT22;9178;51.120;6.192;2023-07-29T13:36:05;23.70;99.90
18103;DHT22;9178;51.120;6.192;2023-07-29T13:38:33;23.50;99.90
18103;DHT22;9178;51.120;6.192;2023-07-29T13:41:00;23.40;99.90
18103;DHT22;9178;51.120;6.192;2023-07-29T13:43:27;23.30;99.90
18103;DHT22;9178;51.120;6.192;2023-07-29T13:45:54;23.40;99.90
18103;DHT22;9178;51.120;6.192;2023-07-29T13:48:24;23.50;99.90
18103;DHT22;9178;51.120;6.192;2023-07-29T13:50:52;23.50;99.90
18103;DHT22;9178;51.120;6.192;2023-07-29T13:53:20;23.50;99.90
18103;DHT22;9178;51.120;6.192;2023-07-29T13:55:47;23.40;99.90
18103;DHT22;9178;51.120;6.192;2023-07-29T13:58:13;23.40;99.90
18103;DHT22;9178;51.120;6.192;2023-07-29T14:00:40;23.40;99.90
18103;DHT22;9178;51.120;6.192;2023-07-29T14:03:08;23.30;99.90
18103;DHT22;9178;51.120;6.192;2023-07-29T14:05:36;23.10;99.90
18103;DHT22;9178;51.120;6.192;2023-07-29T14:08:05;23.10;99.90
18103;DHT22;9178;51.120;6.192;2023-07-29T14:10:32;23.00;99.90
18103;DHT22;9178;51.120;6.192;2023-07-29T14:12:59;23.00;99.90
18103;DHT22;9178;51.120;6.192;2023-07-29T14:15:25;22.90;99.90
18103;DHT22;9178;51.120;6.192;2023-07-29T14:17:53;22.90;99.90
18103;DHT22;9178;51.120;6.192;2023-07-29T14:20:20;23.00;99.90
18103;DHT22;9178;51.120;6.192;2023-07-29T14:22:47;23.20;99.90
18103;DHT22;9178;51.120;6.192;2023-07-29T14:25:16;23.30;99.90
18103;DHT22;9178;51.120;6.192;2023-07-29T14:27:44;23.50;99.90
18103;DHT22;9178;51.120;6.192;2023-07-29T14:30:11;23.80;99.90
18103;DHT22;9178;51.120;6.192;2023-07-29T14:32:38;24.10;99.90
18103;DHT22;9178;51.120;6.192;2023-07-29T14:35:10;24.20;99.90
18103;DHT22;9178;51.120;6.192;2023-07-29T14:37:37;24.80;99.90
18103;DHT22;9178;51.120;6.192;2023-07-29T14:40:05;25.30;99.90
18103;DHT22;9178;51.120;6.192;2023-07-29T14:42:34;26.00;99.90
18103;DHT22;9178;51.120;6.192;2023-07-29T14:45:01;26.10;99.90
18103;DHT22;9178;51.120;6.192;2023-07-29T14:47:28;26.00;99.90
18103;DHT22;9178;51.120;6.192;2023-07-29T14:50:00;26.00;99.90
18103;DHT22;9178;51.120;6.192;2023-07-29T14:52:26;26.00;99.90
18103;DHT22;9178;51.120;6.192;2023-07-29T14:54:54;26.00;99.90
18103;DHT22;9178;51.120;6.192;2023-07-29T14:57:20;26.20;99.90
18103;DHT22;9178;51.120;6.192;2023-07-29T14:59:49;26.50;99.90
18103;DHT22;9178;51.120;6.192;2023-07-29T15:02:16;26.20;99.90
18103;DHT22;9178;51.120;6.192;2023-07-29T15:04:43;26.10;99.90
18103;DHT22;9178;51.120;6.192;2023-07-29T15:07:10;26.30;99.90
18103;DHT22;9178;51.120;6.192;2023-07-29T15:09:37;26.70;99.90
18103;DHT22;9178;51.120;6.192;2023-07-29T15:12:05;27.00;99.90
18103;DHT22;9178;51.120;6.192;2023-07-29T15:14:32;27.30;99.90
18103;DHT22;9178;51.120;6.192;2023-07-29T15:17:00;27.60;99.90
18103;DHT22;9178;51.120;6.192;2023-07-29T15:19:27;27.90;99.90
18103;DHT22;9178;51.120;6.192;2023-07-29T15:21:54;28.30;99.90
18103;DHT22;9178;51.120;6.192;2023-07-29T15:24:21;28.20;99.90
18103;DHT22;9178;51.120;6.192;2023-07-29T15:26:47;28.10;99.90
18103;DHT22;9178;51.120;6.192;2023-07-29T15:29:14;28.00;99.90
18103;DHT22;9178;51.120;6.192;2023-07-29T15:31:41;28.00;99.90
18103;DHT22;9178;51.120;6.192;2023-07-29T15:34:09;27.80;99.90
18103;DHT22;9178;51.120;6.192;2023-07-29T15:36:36;27.70;99.90
18103;DHT22;9178;51.120;6.192;2023-07-29T15:39:03;27.60;99.90
18103;DHT22;9178;51.120;6.192;2023-07-29T15:41:31;27.70;99.90
18103;DHT22;9178;51.120;6.192;2023-07-29T15:43:59;28.10;99.90
18103;DHT22;9178;51.120;6.192;2023-07-29T15:46:26;28.10;99.90
18103;DHT22;9178;51.120;6.192;2023-07-29T15:48:53;28.00;99.90
18103;DHT22;9178;51.120;6.192;2023-07-29T15:51:22;28.00;99.90